createdAt,value
2023-09-20T00:00:01.714Z,1008.06
2023-09-20T00:01:01.837Z,1008.05
2023-09-20T00:02:01.818Z,1008.06
2023-09-20T00:03:01.694Z,1008.09
2023-09-20T00:04:01.860Z,1008.09
2023-09-20T00:05:01.754Z,1008.09
2023-09-20T00:06:09.519Z,1008.09
2023-09-20T00:07:09.714Z,1008.11
2023-09-20T00:08:02.730Z,1008.04
2023-09-20T00:09:01.727Z,1008.11
2023-09-20T00:10:02.586Z,1008.10
2023-09-20T00:11:01.551Z,1008.08
2023-09-20T00:12:01.521Z,1008.11
2023-09-20T00:13:01.584Z,1008.10
2023-09-20T00:14:01.555Z,1008.08
2023-09-20T00:15:01.532Z,1008.10
2023-09-20T00:16:01.584Z,1008.03
2023-09-20T00:17:01.562Z,1008.07
2023-09-20T00:18:01.465Z,1008.07
2023-09-20T00:19:01.466Z,1008.07
2023-09-20T00:20:01.450Z,1008.06
2023-09-20T00:21:01.432Z,1008.02
2023-09-20T00:22:01.471Z,1008.01
2023-09-20T00:23:01.433Z,1008.03
2023-09-20T00:24:01.465Z,1008.03
2023-09-20T00:25:01.368Z,1008.03
2023-09-20T00:26:01.376Z,1008.06
2023-09-20T00:27:01.330Z,1008.08
2023-09-20T00:28:01.386Z,1008.05
2023-09-20T00:29:01.372Z,1008.08
2023-09-20T00:30:01.347Z,1008.03
2023-09-20T00:31:01.344Z,1008.02
2023-09-20T00:32:01.340Z,1008.02
2023-09-20T00:33:01.355Z,1008.03
2023-09-20T00:34:01.269Z,1007.99
2023-09-20T00:35:01.325Z,1008.00
2023-09-20T00:36:01.249Z,1008.06
2023-09-20T00:37:01.222Z,1008.03
2023-09-20T00:38:01.239Z,1008.04
2023-09-20T00:39:01.169Z,1008.02
2023-09-20T00:40:01.162Z,1008.02
2023-09-20T00:41:08.761Z,1008.01
2023-09-20T00:42:01.142Z,1008.04
2023-09-20T00:43:01.114Z,1007.98
2023-09-20T00:44:01.146Z,1008.00
2023-09-20T00:45:01.103Z,1008.01
2023-09-20T00:46:01.090Z,1007.99
2023-09-20T00:47:01.097Z,1008.03
2023-09-20T00:48:01.118Z,1007.99
2023-09-20T00:49:01.081Z,1008.01
2023-09-20T00:50:01.064Z,1007.99
2023-09-20T00:51:01.019Z,1007.99
2023-09-20T00:52:00.997Z,1007.97
2023-09-20T00:53:01.021Z,1007.94
2023-09-20T00:54:00.977Z,1007.98
2023-09-20T00:55:00.988Z,1007.94
2023-09-20T00:56:00.956Z,1007.96
2023-09-20T00:57:00.941Z,1007.99
2023-09-20T00:58:00.944Z,1007.98
2023-09-20T00:59:00.950Z,1007.98
2023-09-20T01:00:00.910Z,1008.04
2023-09-20T01:01:00.924Z,1008.05
2023-09-20T01:02:00.946Z,1008.01
2023-09-20T01:03:00.950Z,1008.04
2023-09-20T01:04:00.938Z,1008.08
2023-09-20T01:05:00.897Z,1008.06
2023-09-20T01:06:00.854Z,1008.01
2023-09-20T01:07:00.847Z,1007.98
2023-09-20T01:08:00.798Z,1007.98
2023-09-20T01:09:00.776Z,1007.92
2023-09-20T01:10:00.804Z,1008.00
2023-09-20T01:11:00.862Z,1007.93
2023-09-20T01:12:00.789Z,1007.94
2023-09-20T01:13:00.724Z,1007.96
2023-09-20T01:14:00.796Z,1007.96
2023-09-20T01:15:00.732Z,1007.91
2023-09-20T01:16:00.681Z,1007.94
2023-09-20T01:17:00.792Z,1007.86
2023-09-20T01:18:00.767Z,1007.89
2023-09-20T01:19:00.647Z,1007.88
2023-09-20T01:20:00.701Z,1007.91
2023-09-20T01:21:00.664Z,1007.91
2023-09-20T01:22:00.616Z,1007.93
2023-09-20T01:23:00.664Z,1007.93
2023-09-20T01:24:00.611Z,1007.96
2023-09-20T01:25:00.585Z,1007.90
2023-09-20T01:26:00.599Z,1007.88
2023-09-20T01:27:00.569Z,1007.89
2023-09-20T01:28:00.518Z,1007.83
2023-09-20T01:29:00.570Z,1007.81
2023-09-20T01:30:00.558Z,1007.80
2023-09-20T01:31:00.576Z,1007.87
2023-09-20T01:32:00.552Z,1007.79
2023-09-20T01:33:00.521Z,1007.89
2023-09-20T01:34:00.442Z,1007.83
2023-09-20T01:35:00.477Z,1007.85
2023-09-20T01:36:00.463Z,1007.86
2023-09-20T01:37:00.414Z,1007.88
2023-09-20T01:38:00.426Z,1007.80
2023-09-20T01:39:00.403Z,1007.79
2023-09-20T01:40:00.374Z,1007.80
2023-09-20T01:41:00.386Z,1007.70
2023-09-20T01:42:00.437Z,1007.76
2023-09-20T01:43:00.336Z,1007.72
2023-09-20T01:44:00.373Z,1007.73
2023-09-20T01:45:00.313Z,1007.69
2023-09-20T01:46:00.294Z,1007.66
2023-09-20T01:47:00.406Z,1007.71
2023-09-20T01:48:00.469Z,1007.71
2023-09-20T01:49:00.381Z,1007.70
2023-09-20T01:50:00.353Z,1007.70
2023-09-20T01:51:00.247Z,1007.63
2023-09-20T01:52:00.225Z,1007.60
2023-09-20T01:53:00.235Z,1007.62
2023-09-20T01:54:00.221Z,1007.60
2023-09-20T01:55:00.187Z,1007.61
2023-09-20T01:56:00.184Z,1007.58
2023-09-20T01:57:00.184Z,1007.62
2023-09-20T01:58:00.169Z,1007.60
2023-09-20T01:59:00.155Z,1007.59
2023-09-20T02:00:00.096Z,1007.61
2023-09-20T02:01:00.179Z,1007.61
2023-09-20T02:02:00.149Z,1007.54
2023-09-20T02:03:00.117Z,1007.59
2023-09-20T02:04:00.248Z,1007.53
2023-09-20T02:05:00.118Z,1007.56
2023-09-20T02:06:00.129Z,1007.54
2023-09-20T02:07:00.040Z,1007.57
2023-09-20T02:08:00.065Z,1007.54
2023-09-20T02:09:00.025Z,1007.60
2023-09-20T02:09:59.978Z,1007.57
2023-09-20T02:10:59.991Z,1007.61
2023-09-20T02:11:59.935Z,1007.65
2023-09-20T02:12:59.937Z,1007.64
2023-09-20T02:14:00.002Z,1007.58
2023-09-20T02:14:59.908Z,1007.53
2023-09-20T02:15:59.896Z,1007.60
2023-09-20T02:16:59.952Z,1007.53
2023-09-20T02:17:59.904Z,1007.53
2023-09-20T02:18:59.858Z,1007.59
2023-09-20T02:19:59.876Z,1007.56
2023-09-20T02:20:59.850Z,1007.53
2023-09-20T02:21:59.801Z,1007.52
2023-09-20T02:22:59.892Z,1007.52
2023-09-20T02:23:59.814Z,1007.55
2023-09-20T02:24:59.785Z,1007.56
2023-09-20T02:25:59.798Z,1007.55
2023-09-20T02:26:59.756Z,1007.55
2023-09-20T02:27:59.750Z,1007.57
2023-09-20T02:28:59.723Z,1007.50
2023-09-20T02:29:59.737Z,1007.55
2023-09-20T02:30:59.760Z,1007.55
2023-09-20T02:31:59.682Z,1007.51
2023-09-20T02:32:59.706Z,1007.50
2023-09-20T02:33:59.639Z,1007.57
2023-09-20T02:34:59.698Z,1007.56
2023-09-20T02:35:59.644Z,1007.51
2023-09-20T02:36:59.625Z,1007.48
2023-09-20T02:37:59.635Z,1007.51
2023-09-20T02:38:59.620Z,1007.49
2023-09-20T02:39:59.562Z,1007.47
2023-09-20T02:40:59.701Z,1007.44
2023-09-20T02:41:59.551Z,1007.43
2023-09-20T02:42:59.541Z,1007.44
2023-09-20T02:43:59.577Z,1007.42
2023-09-20T02:44:59.526Z,1007.45
2023-09-20T02:45:59.518Z,1007.43
2023-09-20T02:46:59.538Z,1007.47
2023-09-20T02:47:59.508Z,1007.43
2023-09-20T02:48:59.472Z,1007.41
2023-09-20T02:49:59.446Z,1007.45
2023-09-20T02:50:59.425Z,1007.43
2023-09-20T02:51:59.419Z,1007.38
2023-09-20T02:52:59.434Z,1007.49
2023-09-20T02:53:59.405Z,1007.40
2023-09-20T02:54:59.415Z,1007.43
2023-09-20T02:55:59.360Z,1007.41
2023-09-20T02:56:59.373Z,1007.41
2023-09-20T02:57:59.340Z,1007.35
2023-09-20T02:58:59.347Z,1007.34
2023-09-20T02:59:59.326Z,1007.31
2023-09-20T03:00:59.290Z,1007.35
2023-09-20T03:01:59.369Z,1007.32
2023-09-20T03:02:59.444Z,1007.31
2023-09-20T03:03:59.459Z,1007.22
2023-09-20T03:04:59.283Z,1007.29
2023-09-20T03:05:59.250Z,1007.30
2023-09-20T03:06:59.221Z,1007.26
2023-09-20T03:07:59.265Z,1007.24
2023-09-20T03:08:59.202Z,1007.22
2023-09-20T03:09:59.182Z,1007.26
2023-09-20T03:10:59.212Z,1007.19
2023-09-20T03:11:59.182Z,1007.16
2023-09-20T03:12:59.444Z,1007.19
2023-09-20T03:13:59.178Z,1007.21
2023-09-20T03:14:59.116Z,1007.19
2023-09-20T03:15:59.169Z,1007.23
2023-09-20T03:16:59.135Z,1007.19
2023-09-20T03:17:59.166Z,1007.21
2023-09-20T03:18:59.080Z,1007.16
2023-09-20T03:19:59.166Z,1007.13
2023-09-20T03:20:59.172Z,1007.11
2023-09-20T03:21:59.068Z,1007.08
2023-09-20T03:22:59.104Z,1007.03
2023-09-20T03:23:59.015Z,1007.05
2023-09-20T03:24:59.052Z,1007.03
2023-09-20T03:25:59.003Z,1007.10
2023-09-20T03:26:58.968Z,1007.12
2023-09-20T03:27:58.983Z,1007.12
2023-09-20T03:28:58.980Z,1007.12
2023-09-20T03:29:58.957Z,1007.10
2023-09-20T03:30:58.934Z,1007.11
2023-09-20T03:31:58.990Z,1007.11
2023-09-20T03:32:58.923Z,1007.10
2023-09-20T03:33:58.892Z,1007.09
2023-09-20T03:34:58.928Z,1007.09
2023-09-20T03:35:58.831Z,1007.12
2023-09-20T03:36:58.846Z,1007.04
2023-09-20T03:37:58.909Z,1007.06
2023-09-20T03:38:58.819Z,1007.10
2023-09-20T03:39:58.819Z,1007.11
2023-09-20T03:40:58.805Z,1007.12
2023-09-20T03:41:58.802Z,1007.09
2023-09-20T03:42:58.736Z,1007.08
2023-09-20T03:43:58.754Z,1007.09
2023-09-20T03:44:58.750Z,1007.07
2023-09-20T03:45:58.763Z,1007.11
2023-09-20T03:46:58.880Z,1007.11
2023-09-20T03:47:58.763Z,1007.06
2023-09-20T03:48:58.699Z,1007.14
2023-09-20T03:49:58.690Z,1007.09
2023-09-20T03:50:58.716Z,1007.10
2023-09-20T03:51:58.623Z,1007.05
2023-09-20T03:52:58.689Z,1007.05
2023-09-20T03:53:58.628Z,1006.97
2023-09-20T03:54:58.611Z,1006.97
2023-09-20T03:55:58.714Z,1007.00
2023-09-20T03:56:58.575Z,1007.01
2023-09-20T03:57:58.542Z,1006.97
2023-09-20T03:58:58.688Z,1006.93
2023-09-20T03:59:58.540Z,1006.88
2023-09-20T04:00:58.636Z,1006.93
2023-09-20T04:01:58.531Z,1006.88
2023-09-20T04:02:58.611Z,1006.91
2023-09-20T04:03:58.550Z,1006.90
2023-09-20T04:04:58.524Z,1006.88
2023-09-20T04:05:58.573Z,1006.85
2023-09-20T04:06:58.466Z,1006.87
2023-09-20T04:07:58.448Z,1006.82
2023-09-20T04:08:58.409Z,1006.79
2023-09-20T04:09:58.410Z,1006.86
2023-09-20T04:10:58.439Z,1006.80
2023-09-20T04:11:58.378Z,1006.81
2023-09-20T04:12:58.349Z,1006.73
2023-09-20T04:13:58.384Z,1006.75
2023-09-20T04:14:58.351Z,1006.74
2023-09-20T04:15:58.385Z,1006.75
2023-09-20T04:16:58.437Z,1006.74
2023-09-20T04:17:58.374Z,1006.71
2023-09-20T04:18:58.296Z,1006.71
2023-09-20T04:19:58.296Z,1006.74
2023-09-20T04:20:58.258Z,1006.70
2023-09-20T04:21:58.253Z,1006.69
2023-09-20T04:22:58.245Z,1006.67
2023-09-20T04:23:58.211Z,1006.68
2023-09-20T04:24:58.219Z,1006.67
2023-09-20T04:25:58.213Z,1006.58
2023-09-20T04:26:58.244Z,1006.53
2023-09-20T04:27:58.171Z,1006.67
2023-09-20T04:28:58.168Z,1006.57
2023-09-20T04:29:58.138Z,1006.64
2023-09-20T04:30:58.126Z,1006.61
2023-09-20T04:31:58.131Z,1006.61
2023-09-20T04:32:58.152Z,1006.59
2023-09-20T04:33:58.078Z,1006.67
2023-09-20T04:34:58.096Z,1006.62
2023-09-20T04:35:58.053Z,1006.62
2023-09-20T04:36:58.057Z,1006.61
2023-09-20T04:37:58.023Z,1006.61
2023-09-20T04:38:58.041Z,1006.56
2023-09-20T04:39:57.996Z,1006.56
2023-09-20T04:40:58.122Z,1006.57
2023-09-20T04:41:58.016Z,1006.58
2023-09-20T04:42:58.022Z,1006.58
2023-09-20T04:43:57.961Z,1006.56
2023-09-20T04:44:57.941Z,1006.52
2023-09-20T04:45:57.993Z,1006.58
2023-09-20T04:46:57.955Z,1006.55
2023-09-20T04:47:58.002Z,1006.57
2023-09-20T04:48:57.910Z,1006.63
2023-09-20T04:49:57.867Z,1006.60
2023-09-20T04:50:57.867Z,1006.63
2023-09-20T04:51:57.871Z,1006.62
2023-09-20T04:52:57.847Z,1006.66
2023-09-20T04:53:57.818Z,1006.62
2023-09-20T04:54:57.819Z,1006.66
2023-09-20T04:55:57.828Z,1006.61
2023-09-20T04:56:57.845Z,1006.71
2023-09-20T04:57:57.815Z,1006.66
2023-09-20T04:58:57.773Z,1006.68
2023-09-20T04:59:57.750Z,1006.61
2023-09-20T05:00:57.772Z,1006.66
2023-09-20T05:01:57.732Z,1006.62
2023-09-20T05:02:57.951Z,1006.61
2023-09-20T05:03:57.822Z,1006.67
2023-09-20T05:04:57.677Z,1006.64
2023-09-20T05:05:57.674Z,1006.63
2023-09-20T05:06:57.693Z,1006.63
2023-09-20T05:07:57.659Z,1006.61
2023-09-20T05:08:57.667Z,1006.59
2023-09-20T05:09:57.622Z,1006.58
2023-09-20T05:10:57.600Z,1006.58
2023-09-20T05:11:57.672Z,1006.59
2023-09-20T05:12:57.600Z,1006.63
2023-09-20T05:13:57.579Z,1006.59
2023-09-20T05:14:57.595Z,1006.64
2023-09-20T05:15:57.634Z,1006.59
2023-09-20T05:16:57.540Z,1006.58
2023-09-20T05:17:57.771Z,1006.55
2023-09-20T05:18:57.510Z,1006.53
2023-09-20T05:19:57.487Z,1006.56
2023-09-20T05:20:57.464Z,1006.67
2023-09-20T05:21:57.466Z,1006.60
2023-09-20T05:22:57.524Z,1006.63
2023-09-20T05:23:57.434Z,1006.66
2023-09-20T05:24:57.429Z,1006.69
2023-09-20T05:25:57.425Z,1006.67
2023-09-20T05:26:57.432Z,1006.64
2023-09-20T05:27:57.384Z,1006.61
2023-09-20T05:28:57.384Z,1006.62
2023-09-20T05:29:57.357Z,1006.63
2023-09-20T05:30:57.387Z,1006.66
2023-09-20T05:31:57.428Z,1006.64
2023-09-20T05:32:57.377Z,1006.63
2023-09-20T05:33:57.305Z,1006.62
2023-09-20T05:34:57.300Z,1006.59
2023-09-20T05:35:57.284Z,1006.63
2023-09-20T05:36:57.287Z,1006.61
2023-09-20T05:37:57.289Z,1006.60
2023-09-20T05:38:57.233Z,1006.58
2023-09-20T05:39:57.277Z,1006.59
2023-09-20T05:40:57.238Z,1006.58
2023-09-20T05:41:57.210Z,1006.48
2023-09-20T05:42:57.190Z,1006.49
2023-09-20T05:43:57.206Z,1006.48
2023-09-20T05:44:57.195Z,1006.42
2023-09-20T05:45:57.158Z,1006.41
2023-09-20T05:46:57.219Z,1006.42
2023-09-20T05:47:57.281Z,1006.51
2023-09-20T05:48:57.149Z,1006.38
2023-09-20T05:49:57.107Z,1006.40
2023-09-20T05:50:57.086Z,1006.42
2023-09-20T05:51:57.081Z,1006.41
2023-09-20T05:52:57.152Z,1006.42
2023-09-20T05:53:57.044Z,1006.37
2023-09-20T05:54:57.081Z,1006.39
2023-09-20T05:55:57.026Z,1006.36
2023-09-20T05:56:57.020Z,1006.34
2023-09-20T05:57:56.986Z,1006.47
2023-09-20T05:58:56.968Z,1006.46
2023-09-20T05:59:59.283Z,1006.44
2023-09-20T06:00:56.992Z,1006.45
2023-09-20T06:01:57.033Z,1006.39
2023-09-20T06:02:57.068Z,1006.41
2023-09-20T06:03:56.989Z,1006.39
2023-09-20T06:04:56.893Z,1006.35
2023-09-20T06:05:56.892Z,1006.36
2023-09-20T06:06:56.882Z,1006.38
2023-09-20T06:07:56.853Z,1006.35
2023-09-20T06:08:56.845Z,1006.34
2023-09-20T06:09:56.831Z,1006.31
2023-09-20T06:10:56.830Z,1006.33
2023-09-20T06:11:56.810Z,1006.35
2023-09-20T06:12:56.787Z,1006.32
2023-09-20T06:13:56.783Z,1006.37
2023-09-20T06:14:56.784Z,1006.38
2023-09-20T06:15:56.756Z,1006.35
2023-09-20T06:16:56.795Z,1006.45
2023-09-20T06:17:56.853Z,1006.30
2023-09-20T06:19:06.040Z,1006.34
2023-09-20T06:19:57.725Z,1006.43
2023-09-20T06:20:56.694Z,1006.43
2023-09-20T06:21:56.717Z,1006.40
2023-09-20T06:22:56.652Z,1006.49
2023-09-20T06:23:56.662Z,1006.49
2023-09-20T06:24:56.635Z,1006.38
2023-09-20T06:25:56.618Z,1006.50
2023-09-20T06:26:56.626Z,1006.42
2023-09-20T06:27:56.596Z,1006.42
2023-09-20T06:28:56.596Z,1006.37
2023-09-20T06:29:56.583Z,1006.40
2023-09-20T06:30:56.611Z,1006.31
2023-09-20T06:31:56.553Z,1006.33
2023-09-20T06:32:56.641Z,1006.37
2023-09-20T06:33:56.542Z,1006.41
2023-09-20T06:34:59.386Z,1006.36
2023-09-20T06:35:56.801Z,1006.41
2023-09-20T06:36:56.589Z,1006.50
2023-09-20T06:37:56.464Z,1006.48
2023-09-20T06:38:56.460Z,1006.45
2023-09-20T06:39:56.445Z,1006.39
2023-09-20T06:40:56.434Z,1006.46
2023-09-20T06:42:04.584Z,1006.49
2023-09-20T06:42:56.471Z,1006.45
2023-09-20T06:43:56.417Z,1006.44
2023-09-20T06:44:56.449Z,1006.46
2023-09-20T06:45:56.384Z,1006.42
2023-09-20T06:46:56.365Z,1006.38
2023-09-20T06:47:56.445Z,1006.45
2023-09-20T06:48:56.355Z,1006.35
2023-09-20T06:49:56.323Z,1006.36
2023-09-20T06:50:56.293Z,1006.31
2023-09-20T06:51:56.291Z,1006.31
2023-09-20T06:52:56.310Z,1006.32
2023-09-20T06:53:56.441Z,1006.36
2023-09-20T06:54:56.264Z,1006.33
2023-09-20T06:55:56.341Z,1006.31
2023-09-20T06:56:56.263Z,1006.35
2023-09-20T06:58:05.186Z,1006.35
2023-09-20T06:58:57.217Z,1006.38
2023-09-20T06:59:56.188Z,1006.41
2023-09-20T07:00:56.246Z,1006.38
2023-09-20T07:01:56.209Z,1006.49
2023-09-20T07:02:56.284Z,1006.44
2023-09-20T07:03:56.224Z,1006.46
2023-09-20T07:04:56.122Z,1006.51
2023-09-20T07:05:56.146Z,1006.51
2023-09-20T07:06:56.166Z,1006.41
2023-09-20T07:07:56.149Z,1006.52
2023-09-20T07:08:56.079Z,1006.54
2023-09-20T07:09:56.080Z,1006.48
2023-09-20T07:10:56.042Z,1006.50
2023-09-20T07:11:56.234Z,1006.50
2023-09-20T07:12:56.075Z,1006.49
2023-09-20T07:13:57.093Z,1006.53
2023-09-20T07:14:56.166Z,1006.52
2023-09-20T07:15:56.078Z,1006.45
2023-09-20T07:16:56.133Z,1006.50
2023-09-20T07:17:56.027Z,1006.48
2023-09-20T07:18:56.028Z,1006.41
2023-09-20T07:19:55.932Z,1006.47
2023-09-20T07:20:56.199Z,1006.44
2023-09-20T07:21:55.928Z,1006.38
2023-09-20T07:22:55.961Z,1006.35
2023-09-20T07:23:55.884Z,1006.35
2023-09-20T07:24:55.924Z,1006.34
2023-09-20T07:25:55.894Z,1006.37
2023-09-20T07:26:55.838Z,1006.35
2023-09-20T07:27:55.814Z,1006.35
2023-09-20T07:28:55.866Z,1006.36
2023-09-20T07:29:56.251Z,1006.37
2023-09-20T07:30:55.905Z,1006.37
2023-09-20T07:31:55.800Z,1006.33
2023-09-20T07:33:10.365Z,1006.37
2023-09-20T07:33:56.935Z,1006.38
2023-09-20T07:34:55.745Z,1006.44
2023-09-20T07:35:55.728Z,1006.43
2023-09-20T07:36:55.718Z,1006.42
2023-09-20T07:37:55.821Z,1006.41
2023-09-20T07:38:55.848Z,1006.42
2023-09-20T07:39:55.689Z,1006.38
2023-09-20T07:40:55.663Z,1006.42
2023-09-20T07:41:55.664Z,1006.37
2023-09-20T07:42:55.696Z,1006.37
2023-09-20T07:43:55.623Z,1006.39
2023-09-20T07:44:55.649Z,1006.43
2023-09-20T07:45:55.831Z,1006.41
2023-09-20T07:46:55.582Z,1006.37
2023-09-20T07:47:55.642Z,1006.42
2023-09-20T07:48:55.567Z,1006.38
2023-09-20T07:49:55.565Z,1006.37
2023-09-20T07:50:56.643Z,1006.36
2023-09-20T07:51:55.751Z,1006.39
2023-09-20T07:52:55.656Z,1006.41
2023-09-20T07:53:55.865Z,1006.36
2023-09-20T07:54:55.630Z,1006.38
2023-09-20T07:55:56.013Z,1006.42
2023-09-20T07:56:55.475Z,1006.38
2023-09-20T07:57:55.453Z,1006.44
2023-09-20T07:58:56.387Z,1006.40
2023-09-20T07:59:56.284Z,1006.43
2023-09-20T08:00:55.401Z,1006.46
2023-09-20T08:01:55.539Z,1006.42
2023-09-20T08:02:55.868Z,1006.40
2023-09-20T08:03:56.189Z,1006.41
2023-09-20T08:04:55.336Z,1006.48
2023-09-20T08:05:55.471Z,1006.44
2023-09-20T08:06:55.324Z,1006.45
2023-09-20T08:07:55.301Z,1006.46
2023-09-20T08:08:55.369Z,1006.41
2023-09-20T08:09:55.308Z,1006.40
2023-09-20T08:11:10.956Z,1006.42
2023-09-20T08:11:56.309Z,1006.45
2023-09-20T08:12:55.281Z,1006.39
2023-09-20T08:13:55.222Z,1006.41
2023-09-20T08:14:55.218Z,1006.47
2023-09-20T08:15:55.208Z,1006.49
2023-09-20T08:17:55.302Z,1006.43
2023-09-20T08:18:55.282Z,1006.45
2023-09-20T08:19:55.146Z,1006.48
2023-09-20T08:20:55.132Z,1006.56
2023-09-20T08:21:55.153Z,1006.52
2023-09-20T08:22:55.101Z,1006.55
2023-09-20T08:23:55.093Z,1006.54
2023-09-20T08:24:55.087Z,1006.54
2023-09-20T08:25:55.062Z,1006.52
2023-09-20T08:26:55.106Z,1006.60
2023-09-20T08:27:55.035Z,1006.59
2023-09-20T08:28:55.032Z,1006.55
2023-09-20T08:29:56.668Z,1006.63
2023-09-20T08:30:55.112Z,1006.58
2023-09-20T08:31:55.103Z,1006.60
2023-09-20T08:32:55.315Z,1006.55
2023-09-20T08:33:54.988Z,1006.58
2023-09-20T08:34:55.939Z,1006.58
2023-09-20T08:35:55.017Z,1006.57
2023-09-20T08:36:54.916Z,1006.63
2023-09-20T08:37:54.917Z,1006.62
2023-09-20T08:38:54.969Z,1006.62
2023-09-20T08:39:54.956Z,1006.63
2023-09-20T08:40:55.106Z,1006.69
2023-09-20T08:41:54.992Z,1006.69
2023-09-20T08:42:55.169Z,1006.61
2023-09-20T08:43:55.010Z,1006.61
2023-09-20T08:44:56.042Z,1006.70
2023-09-20T08:45:55.079Z,1006.64
2023-09-20T08:46:54.840Z,1006.63
2023-09-20T08:47:54.904Z,1006.60
2023-09-20T08:48:54.887Z,1006.64
2023-09-20T08:49:54.916Z,1006.67
2023-09-20T08:50:55.070Z,1006.73
2023-09-20T08:51:54.759Z,1006.71
2023-09-20T08:52:54.723Z,1006.61
2023-09-20T08:53:54.941Z,1006.69
2023-09-20T08:54:54.745Z,1006.72
2023-09-20T08:55:54.773Z,1006.64
2023-09-20T08:56:54.838Z,1006.73
2023-09-20T08:57:54.672Z,1006.66
2023-09-20T08:58:54.754Z,1006.65
2023-09-20T08:59:54.688Z,1006.67
2023-09-20T09:00:54.636Z,1006.62
2023-09-20T09:01:54.640Z,1006.62
2023-09-20T09:02:55.027Z,1006.66
2023-09-20T09:03:54.659Z,1006.65
2023-09-20T09:04:54.567Z,1006.61
2023-09-20T09:05:54.643Z,1006.65
2023-09-20T09:06:54.587Z,1006.58
2023-09-20T09:07:54.500Z,1006.59
2023-09-20T09:08:54.624Z,1006.55
2023-09-20T09:09:54.526Z,1006.55
2023-09-20T09:10:54.501Z,1006.51
2023-09-20T09:11:54.453Z,1006.58
2023-09-20T09:12:54.450Z,1006.58
2023-09-20T09:13:54.465Z,1006.50
2023-09-20T09:14:54.404Z,1006.55
2023-09-20T09:15:54.494Z,1006.59
2023-09-20T09:16:54.464Z,1006.51
2023-09-20T09:17:54.472Z,1006.51
2023-09-20T09:18:54.474Z,1006.45
2023-09-20T09:19:54.406Z,1006.52
2023-09-20T09:20:54.398Z,1006.47
2023-09-20T09:21:54.311Z,1006.47
2023-09-20T09:22:54.335Z,1006.44
2023-09-20T09:23:54.336Z,1006.41
2023-09-20T09:24:54.279Z,1006.45
2023-09-20T09:25:54.305Z,1006.47
2023-09-20T09:26:54.254Z,1006.43
2023-09-20T09:27:54.254Z,1006.47
2023-09-20T09:28:54.224Z,1006.47
2023-09-20T09:29:54.303Z,1006.53
2023-09-20T09:30:54.234Z,1006.45
2023-09-20T09:31:54.241Z,1006.47
2023-09-20T09:32:54.355Z,1006.47
2023-09-20T09:33:54.254Z,1006.49
2023-09-20T09:34:54.197Z,1006.48
2023-09-20T09:35:54.192Z,1006.45
2023-09-20T09:36:54.274Z,1006.45
2023-09-20T09:37:54.115Z,1006.44
2023-09-20T09:38:54.261Z,1006.40
2023-09-20T09:39:54.116Z,1006.45
2023-09-20T09:40:54.111Z,1006.51
2023-09-20T09:41:54.077Z,1006.38
2023-09-20T09:42:54.046Z,1006.43
2023-09-20T09:43:54.063Z,1006.40
2023-09-20T09:44:54.087Z,1006.28
2023-09-20T09:45:54.024Z,1006.30
2023-09-20T09:46:54.024Z,1006.27
2023-09-20T09:47:54.033Z,1006.33
2023-09-20T09:48:54.045Z,1006.29
2023-09-20T09:49:53.958Z,1006.27
2023-09-20T09:50:53.992Z,1006.28
2023-09-20T09:51:53.956Z,1006.28
2023-09-20T09:52:53.919Z,1006.20
2023-09-20T09:53:53.975Z,1006.19
2023-09-20T09:54:53.978Z,1006.16
2023-09-20T09:55:53.897Z,1006.15
2023-09-20T09:56:53.878Z,1006.17
2023-09-20T09:57:53.847Z,1006.14
2023-09-20T09:58:53.845Z,1006.18
2023-09-20T09:59:53.838Z,1006.16
2023-09-20T10:00:53.811Z,1006.18
2023-09-20T10:01:53.833Z,1006.17
2023-09-20T10:02:53.940Z,1006.15
2023-09-20T10:03:53.983Z,1006.14
2023-09-20T10:04:53.783Z,1006.19
2023-09-20T10:05:53.823Z,1006.19
2023-09-20T10:06:53.801Z,1006.15
2023-09-20T10:07:53.737Z,1006.26
2023-09-20T10:08:53.773Z,1006.24
2023-09-20T10:09:53.730Z,1006.17
2023-09-20T10:10:53.672Z,1006.18
2023-09-20T10:11:53.705Z,1006.11
2023-09-20T10:12:53.671Z,1006.18
2023-09-20T10:13:53.645Z,1006.26
2023-09-20T10:14:53.703Z,1006.17
2023-09-20T10:15:53.638Z,1006.15
2023-09-20T10:16:53.643Z,1006.23
2023-09-20T10:17:53.785Z,1006.18
2023-09-20T10:18:56.913Z,1006.18
2023-09-20T10:19:54.568Z,1006.16
2023-09-20T10:20:53.605Z,1006.11
2023-09-20T10:21:53.557Z,1006.16
2023-09-20T10:22:53.605Z,1006.14
2023-09-20T10:23:53.521Z,1006.20
2023-09-20T10:24:53.558Z,1006.09
2023-09-20T10:25:53.486Z,1006.12
2023-09-20T10:26:53.521Z,1006.20
2023-09-20T10:27:53.481Z,1006.11
2023-09-20T10:28:53.442Z,1006.17
2023-09-20T10:29:53.496Z,1006.21
2023-09-20T10:30:53.455Z,1006.17
2023-09-20T10:31:53.409Z,1006.17
2023-09-20T10:32:53.547Z,1006.16
2023-09-20T10:33:53.632Z,1006.19
2023-09-20T10:34:53.361Z,1006.05
2023-09-20T10:35:53.393Z,1006.09
2023-09-20T10:36:53.346Z,1006.07
2023-09-20T10:37:53.415Z,1006.08
2023-09-20T10:38:53.351Z,1005.98
2023-09-20T10:39:53.305Z,1006.02
2023-09-20T10:40:53.322Z,1006.05
2023-09-20T10:41:53.319Z,1006.02
2023-09-20T10:42:53.292Z,1005.96
2023-09-20T10:43:53.239Z,1006.02
2023-09-20T10:44:53.316Z,1006.06
2023-09-20T10:45:53.249Z,1006.09
2023-09-20T10:46:53.240Z,1006.00
2023-09-20T10:47:53.276Z,1006.02
2023-09-20T10:48:53.220Z,1006.02
2023-09-20T10:49:53.219Z,1005.96
2023-09-20T10:50:53.188Z,1006.14
2023-09-20T10:51:53.160Z,1006.14
2023-09-20T10:52:53.119Z,1006.06
2023-09-20T10:53:53.221Z,1006.07
2023-09-20T10:54:53.140Z,1005.98
2023-09-20T10:55:53.080Z,1005.98
2023-09-20T10:56:53.171Z,1005.99
2023-09-20T10:57:53.086Z,1006.03
2023-09-20T10:58:53.103Z,1005.97
2023-09-20T10:59:53.139Z,1005.91
2023-09-20T11:00:53.072Z,1005.99
2023-09-20T11:01:53.021Z,1005.93
2023-09-20T11:02:53.125Z,1005.96
2023-09-20T11:03:52.990Z,1005.93
2023-09-20T11:04:53.029Z,1005.89
2023-09-20T11:05:53.023Z,1005.81
2023-09-20T11:06:52.963Z,1005.83
2023-09-20T11:07:52.987Z,1005.88
2023-09-20T11:08:52.953Z,1005.92
2023-09-20T11:09:53.005Z,1005.95
2023-09-20T11:10:52.942Z,1005.92
2023-09-20T11:11:52.954Z,1005.88
2023-09-20T11:12:52.871Z,1005.92
2023-09-20T11:13:52.886Z,1005.88
2023-09-20T11:14:52.945Z,1005.87
2023-09-20T11:15:52.852Z,1005.91
2023-09-20T11:16:52.911Z,1005.95
2023-09-20T11:17:52.942Z,1005.90
2023-09-20T11:18:52.794Z,1005.82
2023-09-20T11:19:52.805Z,1005.96
2023-09-20T11:20:52.851Z,1005.84
2023-09-20T11:21:54.473Z,1005.80
2023-09-20T11:22:53.005Z,1005.87
2023-09-20T11:23:52.822Z,1005.82
2023-09-20T11:24:52.743Z,1005.83
2023-09-20T11:25:52.698Z,1005.70
2023-09-20T11:26:52.735Z,1005.76
2023-09-20T11:27:52.734Z,1005.74
2023-09-20T11:28:52.698Z,1005.77
2023-09-20T11:29:52.839Z,1005.74
2023-09-20T11:30:53.004Z,1005.68
2023-09-20T11:31:52.620Z,1005.75
2023-09-20T11:32:52.726Z,1005.65
2023-09-20T11:33:52.598Z,1005.65
2023-09-20T11:34:52.612Z,1005.67
2023-09-20T11:35:52.597Z,1005.67
2023-09-20T11:36:52.553Z,1005.65
2023-09-20T11:37:52.553Z,1005.57
2023-09-20T11:38:52.640Z,1005.62
2023-09-20T11:39:52.633Z,1005.52
2023-09-20T11:40:52.498Z,1005.52
2023-09-20T11:41:52.561Z,1005.55
2023-09-20T11:42:52.501Z,1005.54
2023-09-20T11:43:52.464Z,1005.52
2023-09-20T11:44:52.583Z,1005.50
2023-09-20T11:46:00.531Z,1005.51
2023-09-20T11:46:53.567Z,1005.45
2023-09-20T11:47:52.535Z,1005.51
2023-09-20T11:48:52.404Z,1005.46
2023-09-20T11:49:52.372Z,1005.54
2023-09-20T11:50:52.452Z,1005.45
2023-09-20T11:51:52.360Z,1005.45
2023-09-20T11:52:52.417Z,1005.47
2023-09-20T11:53:52.431Z,1005.42
2023-09-20T11:54:52.385Z,1005.33
2023-09-20T11:55:52.335Z,1005.43
2023-09-20T11:56:52.372Z,1005.39
2023-09-20T11:57:52.275Z,1005.41
2023-09-20T11:58:52.290Z,1005.29
2023-09-20T11:59:52.275Z,1005.29
2023-09-20T12:00:52.315Z,1005.32
2023-09-20T12:01:52.230Z,1005.28
2023-09-20T12:02:52.362Z,1005.24
2023-09-20T12:03:52.352Z,1005.34
2023-09-20T12:04:52.219Z,1005.25
2023-09-20T12:05:52.294Z,1005.28